sensor_id;sensor_type;location;lat;lon;timestamp;P1;durP1;ratioP1;P2;durP2;ratioP2
4232;SDS011;2130;48.472;11.934;2022-10-03T00:00:28;70.60;;;10.80;;
4232;SDS011;2130;48.472;11.934;2022-10-03T00:05:54;68.27;;;11.17;;
4232;SDS011;2130;48.472;11.934;2022-10-03T00:08:34;67.97;;;9.97;;
4232;SDS011;2130;48.472;11.934;2022-10-03T00:11:24;68.37;;;9.00;;
4232;SDS011;2130;48.472;11.934;2022-10-03T00:14:00;68.90;;;10.40;;
4232;SDS011;2130;48.472;11.934;2022-10-03T00:16:35;71.20;;;10.47;;
4232;SDS011;2130;48.472;11.934;2022-10-03T00:19:08;70.17;;;11.47;;
4232;SDS011;2130;48.472;11.934;2022-10-03T00:21:46;69.07;;;11.07;;
4232;SDS011;2130;48.472;11.934;2022-10-03T00:24:22;69.80;;;10.13;;
4232;SDS011;2130;48.472;11.934;2022-10-03T00:26:57;69.50;;;11.27;;
4232;SDS011;2130;48.472;11.934;2022-10-03T00:35:29;68.07;;;9.50;;
4232;SDS011;2130;48.472;11.934;2022-10-03T00:38:07;69.33;;;9.97;;
4232;SDS011;2130;48.472;11.934;2022-10-03T00:46:56;67.77;;;10.00;;
4232;SDS011;2130;48.472;11.934;2022-10-03T00:49:46;72.77;;;11.20;;
4232;SDS011;2130;48.472;11.934;2022-10-03T00:52:41;68.57;;;10.90;;
4232;SDS011;2130;48.472;11.934;2022-10-03T00:55:20;69.00;;;10.67;;
4232;SDS011;2130;48.472;11.934;2022-10-03T00:58:02;69.20;;;11.63;;
4232;SDS011;2130;48.472;11.934;2022-10-03T01:00:45;70.17;;;12.97;;
4232;SDS011;2130;48.472;11.934;2022-10-03T01:03:21;70.17;;;12.37;;
4232;SDS011;2130;48.472;11.934;2022-10-03T01:06:00;71.27;;;12.57;;
4232;SDS011;2130;48.472;11.934;2022-10-03T01:08:43;74.10;;;12.77;;
4232;SDS011;2130;48.472;11.934;2022-10-03T01:11:34;69.27;;;12.80;;
4232;SDS011;2130;48.472;11.934;2022-10-03T01:14:10;71.90;;;12.57;;
4232;SDS011;2130;48.472;11.934;2022-10-03T01:16:49;71.00;;;13.10;;
4232;SDS011;2130;48.472;11.934;2022-10-03T01:19:30;69.60;;;11.73;;
4232;SDS011;2130;48.472;11.934;2022-10-03T01:22:16;72.97;;;15.57;;
4232;SDS011;2130;48.472;11.934;2022-10-03T01:25:04;73.37;;;15.20;;
4232;SDS011;2130;48.472;11.934;2022-10-03T01:27:40;76.10;;;18.60;;
4232;SDS011;2130;48.472;11.934;2022-10-03T01:30:28;74.73;;;17.77;;
4232;SDS011;2130;48.472;11.934;2022-10-03T01:33:02;71.63;;;15.90;;
4232;SDS011;2130;48.472;11.934;2022-10-03T01:35:38;72.97;;;15.70;;
4232;SDS011;2130;48.472;11.934;2022-10-03T01:38:15;76.97;;;19.67;;
4232;SDS011;2130;48.472;11.934;2022-10-03T01:40:49;78.67;;;17.07;;
4232;SDS011;2130;48.472;11.934;2022-10-03T01:43:21;74.07;;;17.07;;
4232;SDS011;2130;48.472;11.934;2022-10-03T01:46:03;73.40;;;17.77;;
4232;SDS011;2130;48.472;11.934;2022-10-03T01:48:37;74.30;;;16.50;;
4232;SDS011;2130;48.472;11.934;2022-10-03T01:51:10;74.27;;;18.37;;
4232;SDS011;2130;48.472;11.934;2022-10-03T01:53:54;75.60;;;19.10;;
4232;SDS011;2130;48.472;11.934;2022-10-03T01:56:30;75.67;;;15.23;;
4232;SDS011;2130;48.472;11.934;2022-10-03T01:59:02;71.47;;;14.40;;
4232;SDS011;2130;48.472;11.934;2022-10-03T02:01:35;75.83;;;19.17;;
4232;SDS011;2130;48.472;11.934;2022-10-03T02:04:11;76.00;;;17.47;;
4232;SDS011;2130;48.472;11.934;2022-10-03T02:06:43;76.10;;;22.67;;
4232;SDS011;2130;48.472;11.934;2022-10-03T02:09:21;77.73;;;22.27;;
4232;SDS011;2130;48.472;11.934;2022-10-03T02:11:56;80.17;;;26.90;;
4232;SDS011;2130;48.472;11.934;2022-10-03T02:14:31;79.63;;;24.10;;
4232;SDS011;2130;48.472;11.934;2022-10-03T02:17:04;82.70;;;27.37;;
4232;SDS011;2130;48.472;11.934;2022-10-03T02:19:35;80.90;;;28.70;;
4232;SDS011;2130;48.472;11.934;2022-10-03T02:22:12;82.40;;;26.03;;
4232;SDS011;2130;48.472;11.934;2022-10-03T02:24:42;79.90;;;24.67;;
4232;SDS011;2130;48.472;11.934;2022-10-03T02:30:11;77.80;;;23.77;;
4232;SDS011;2130;48.472;11.934;2022-10-03T02:33:08;82.07;;;25.07;;
4232;SDS011;2130;48.472;11.934;2022-10-03T02:35:49;80.40;;;24.87;;
4232;SDS011;2130;48.472;11.934;2022-10-03T02:41:33;79.67;;;25.30;;
4232;SDS011;2130;48.472;11.934;2022-10-03T02:44:19;81.43;;;25.40;;
4232;SDS011;2130;48.472;11.934;2022-10-03T02:47:30;83.60;;;29.60;;
4232;SDS011;2130;48.472;11.934;2022-10-03T02:56:13;81.77;;;27.07;;
4232;SDS011;2130;48.472;11.934;2022-10-03T02:59:04;81.17;;;28.07;;
4232;SDS011;2130;48.472;11.934;2022-10-03T03:01:58;82.03;;;28.30;;
4232;SDS011;2130;48.472;11.934;2022-10-03T03:07:47;89.83;;;32.67;;
4232;SDS011;2130;48.472;11.934;2022-10-03T03:10:38;85.23;;;29.33;;
4232;SDS011;2130;48.472;11.934;2022-10-03T03:13:34;84.10;;;29.30;;
4232;SDS011;2130;48.472;11.934;2022-10-03T03:16:24;85.60;;;28.67;;
4232;SDS011;2130;48.472;11.934;2022-10-03T03:19:11;84.43;;;30.27;;
4232;SDS011;2130;48.472;11.934;2022-10-03T03:21:48;83.73;;;28.77;;
4232;SDS011;2130;48.472;11.934;2022-10-03T03:24:23;82.37;;;26.20;;
4232;SDS011;2130;48.472;11.934;2022-10-03T03:27:12;82.77;;;28.57;;
4232;SDS011;2130;48.472;11.934;2022-10-03T03:29:49;79.77;;;25.47;;
4232;SDS011;2130;48.472;11.934;2022-10-03T03:32:27;92.90;;;28.27;;
4232;SDS011;2130;48.472;11.934;2022-10-03T03:35:05;87.40;;;33.97;;
4232;SDS011;2130;48.472;11.934;2022-10-03T03:37:38;86.93;;;32.43;;
4232;SDS011;2130;48.472;11.934;2022-10-03T03:40:16;83.37;;;29.87;;
4232;SDS011;2130;48.472;11.934;2022-10-03T03:43:04;81.43;;;26.73;;
4232;SDS011;2130;48.472;11.934;2022-10-03T03:45:45;82.93;;;25.33;;
4232;SDS011;2130;48.472;11.934;2022-10-03T03:48:24;80.07;;;24.47;;
4232;SDS011;2130;48.472;11.934;2022-10-03T03:51:08;80.07;;;25.07;;
4232;SDS011;2130;48.472;11.934;2022-10-03T03:53:45;78.40;;;22.30;;
4232;SDS011;2130;48.472;11.934;2022-10-03T03:56:35;80.67;;;23.57;;
4232;SDS011;2130;48.472;11.934;2022-10-03T03:59:14;77.00;;;23.30;;
4232;SDS011;2130;48.472;11.934;2022-10-03T04:01:56;78.60;;;21.17;;
4232;SDS011;2130;48.472;11.934;2022-10-03T04:04:45;77.37;;;18.60;;
4232;SDS011;2130;48.472;11.934;2022-10-03T04:07:26;74.67;;;16.80;;
4232;SDS011;2130;48.472;11.934;2022-10-03T04:12:59;76.63;;;19.80;;
4232;SDS011;2130;48.472;11.934;2022-10-03T04:15:47;75.37;;;19.07;;
4232;SDS011;2130;48.472;11.934;2022-10-03T04:18:32;82.27;;;26.47;;
4232;SDS011;2130;48.472;11.934;2022-10-03T04:21:28;83.57;;;27.03;;
4232;SDS011;2130;48.472;11.934;2022-10-03T04:24:06;82.23;;;28.20;;
4232;SDS011;2130;48.472;11.934;2022-10-03T04:26:48;82.30;;;27.73;;
4232;SDS011;2130;48.472;11.934;2022-10-03T04:32:21;80.07;;;25.67;;
4232;SDS011;2130;48.472;11.934;2022-10-03T04:35:07;82.03;;;26.93;;
4232;SDS011;2130;48.472;11.934;2022-10-03T04:37:48;82.77;;;30.63;;
4232;SDS011;2130;48.472;11.934;2022-10-03T04:40:22;88.67;;;34.00;;
4232;SDS011;2130;48.472;11.934;2022-10-03T04:42:57;86.83;;;34.53;;
4232;SDS011;2130;48.472;11.934;2022-10-03T04:45:40;86.80;;;31.33;;
4232;SDS011;2130;48.472;11.934;2022-10-03T04:48:26;88.80;;;32.17;;
4232;SDS011;2130;48.472;11.934;2022-10-03T04:51:02;84.43;;;32.10;;
4232;SDS011;2130;48.472;11.934;2022-10-03T04:53:40;86.73;;;28.60;;
4232;SDS011;2130;48.472;11.934;2022-10-03T04:56:24;86.40;;;33.67;;
4232;SDS011;2130;48.472;11.934;2022-10-03T04:59:11;90.00;;;30.10;;
4232;SDS011;2130;48.472;11.934;2022-10-03T05:02:03;86.03;;;30.77;;
4232;SDS011;2130;48.472;11.934;2022-10-03T05:04:42;85.33;;;30.07;;
4232;SDS011;2130;48.472;11.934;2022-10-03T05:07:19;85.57;;;34.37;;
4232;SDS011;2130;48.472;11.934;2022-10-03T05:09:51;86.17;;;28.67;;
4232;SDS011;2130;48.472;11.934;2022-10-03T05:12:24;82.17;;;27.63;;
4232;SDS011;2130;48.472;11.934;2022-10-03T05:15:00;79.90;;;26.23;;
4232;SDS011;2130;48.472;11.934;2022-10-03T05:17:38;89.50;;;29.53;;
4232;SDS011;2130;48.472;11.934;2022-10-03T05:20:20;82.03;;;25.50;;
4232;SDS011;2130;48.472;11.934;2022-10-03T05:22:54;78.87;;;21.87;;
4232;SDS011;2130;48.472;11.934;2022-10-03T05:25:30;83.70;;;26.07;;
4232;SDS011;2130;48.472;11.934;2022-10-03T05:28:13;78.73;;;22.77;;
4232;SDS011;2130;48.472;11.934;2022-10-03T05:30:48;78.07;;;19.87;;
4232;SDS011;2130;48.472;11.934;2022-10-03T05:33:26;80.83;;;21.73;;
4232;SDS011;2130;48.472;11.934;2022-10-03T05:36:03;80.93;;;24.07;;
4232;SDS011;2130;48.472;11.934;2022-10-03T05:38:48;80.47;;;26.17;;
4232;SDS011;2130;48.472;11.934;2022-10-03T05:41:27;87.10;;;27.77;;
4232;SDS011;2130;48.472;11.934;2022-10-03T05:44:00;79.97;;;23.43;;
4232;SDS011;2130;48.472;11.934;2022-10-03T05:46:40;80.23;;;23.90;;
4232;SDS011;2130;48.472;11.934;2022-10-03T05:49:26;79.47;;;20.97;;
4232;SDS011;2130;48.472;11.934;2022-10-03T05:52:25;81.97;;;20.80;;
4232;SDS011;2130;48.472;11.934;2022-10-03T05:55:09;84.20;;;24.57;;
4232;SDS011;2130;48.472;11.934;2022-10-03T05:57:58;82.57;;;26.07;;
4232;SDS011;2130;48.472;11.934;2022-10-03T06:00:42;82.30;;;25.90;;
4232;SDS011;2130;48.472;11.934;2022-10-03T06:03:28;80.53;;;23.97;;
4232;SDS011;2130;48.472;11.934;2022-10-03T06:06:18;80.53;;;24.60;;
4232;SDS011;2130;48.472;11.934;2022-10-03T06:09:05;84.63;;;22.97;;
4232;SDS011;2130;48.472;11.934;2022-10-03T06:11:45;82.37;;;26.13;;
4232;SDS011;2130;48.472;11.934;2022-10-03T06:14:26;85.17;;;26.07;;
4232;SDS011;2130;48.472;11.934;2022-10-03T06:20:22;86.93;;;27.57;;
4232;SDS011;2130;48.472;11.934;2022-10-03T06:23:29;83.13;;;22.60;;
4232;SDS011;2130;48.472;11.934;2022-10-03T06:32:24;81.73;;;25.97;;
4232;SDS011;2130;48.472;11.934;2022-10-03T06:35:13;86.13;;;26.30;;
4232;SDS011;2130;48.472;11.934;2022-10-03T06:38:07;84.37;;;27.47;;
4232;SDS011;2130;48.472;11.934;2022-10-03T06:41:12;84.77;;;27.37;;
4232;SDS011;2130;48.472;11.934;2022-10-03T06:44:13;90.77;;;29.87;;
4232;SDS011;2130;48.472;11.934;2022-10-03T06:46:53;87.07;;;27.17;;
4232;SDS011;2130;48.472;11.934;2022-10-03T06:52:48;85.13;;;28.17;;
4232;SDS011;2130;48.472;11.934;2022-10-03T06:55:29;89.73;;;22.67;;
4232;SDS011;2130;48.472;11.934;2022-10-03T06:58:20;87.03;;;28.33;;
4232;SDS011;2130;48.472;11.934;2022-10-03T07:01:02;85.50;;;29.67;;
4232;SDS011;2130;48.472;11.934;2022-10-03T07:15:33;81.27;;;22.57;;
4232;SDS011;2130;48.472;11.934;2022-10-03T07:24:18;78.70;;;16.17;;
4232;SDS011;2130;48.472;11.934;2022-10-03T07:27:03;77.40;;;16.93;;
4232;SDS011;2130;48.472;11.934;2022-10-03T07:29:57;84.13;;;20.90;;
4232;SDS011;2130;48.472;11.934;2022-10-03T07:35:52;77.67;;;18.87;;
4232;SDS011;2130;48.472;11.934;2022-10-03T07:39:10;78.67;;;19.37;;
4232;SDS011;2130;48.472;11.934;2022-10-03T07:42:03;81.67;;;17.57;;
4232;SDS011;2130;48.472;11.934;2022-10-03T07:44:51;85.27;;;18.27;;
4232;SDS011;2130;48.472;11.934;2022-10-03T07:51:21;72.00;;;11.40;;
4232;SDS011;2130;48.472;11.934;2022-10-03T07:53:57;84.03;;;16.80;;
4232;SDS011;2130;48.472;11.934;2022-10-03T07:56:48;74.50;;;14.77;;
4232;SDS011;2130;48.472;11.934;2022-10-03T07:59:28;121.15;;;70.28;;
4232;SDS011;2130;48.472;11.934;2022-10-03T08:02:14;81.83;;;16.50;;
4232;SDS011;2130;48.472;11.934;2022-10-03T08:05:00;72.43;;;11.90;;
4232;SDS011;2130;48.472;11.934;2022-10-03T08:07:55;74.47;;;10.73;;
4232;SDS011;2130;48.472;11.934;2022-10-03T08:11:02;77.33;;;10.10;;
4232;SDS011;2130;48.472;11.934;2022-10-03T08:13:41;71.10;;;9.20;;
4232;SDS011;2130;48.472;11.934;2022-10-03T08:16:22;69.80;;;9.77;;
4232;SDS011;2130;48.472;11.934;2022-10-03T08:19:01;77.40;;;12.00;;
4232;SDS011;2130;48.472;11.934;2022-10-03T08:21:42;72.23;;;10.80;;
4232;SDS011;2130;48.472;11.934;2022-10-03T08:24:25;71.57;;;9.33;;
4232;SDS011;2130;48.472;11.934;2022-10-03T08:27:10;74.43;;;12.47;;
4232;SDS011;2130;48.472;11.934;2022-10-03T08:32:50;72.07;;;10.37;;
4232;SDS011;2130;48.472;11.934;2022-10-03T08:35:45;74.17;;;9.33;;
4232;SDS011;2130;48.472;11.934;2022-10-03T08:38:50;71.10;;;10.60;;
4232;SDS011;2130;48.472;11.934;2022-10-03T08:42:01;70.33;;;10.80;;
4232;SDS011;2130;48.472;11.934;2022-10-03T08:47:35;70.70;;;8.90;;
4232;SDS011;2130;48.472;11.934;2022-10-03T08:51:06;69.43;;;8.40;;
4232;SDS011;2130;48.472;11.934;2022-10-03T08:57:16;75.40;;;9.47;;
4232;SDS011;2130;48.472;11.934;2022-10-03T09:00:01;73.57;;;9.37;;
4232;SDS011;2130;48.472;11.934;2022-10-03T09:02:53;82.03;;;9.77;;
4232;SDS011;2130;48.472;11.934;2022-10-03T09:06:06;70.33;;;8.20;;
4232;SDS011;2130;48.472;11.934;2022-10-03T09:09:02;73.90;;;7.77;;
4232;SDS011;2130;48.472;11.934;2022-10-03T09:15:11;70.27;;;7.07;;
4232;SDS011;2130;48.472;11.934;2022-10-03T09:18:07;71.27;;;6.80;;
4232;SDS011;2130;48.472;11.934;2022-10-03T09:23:56;68.83;;;5.97;;
4232;SDS011;2130;48.472;11.934;2022-10-03T09:29:39;84.97;;;15.23;;
4232;SDS011;2130;48.472;11.934;2022-10-03T09:32:27;69.83;;;6.87;;
4232;SDS011;2130;48.472;11.934;2022-10-03T09:35:14;67.37;;;5.80;;
4232;SDS011;2130;48.472;11.934;2022-10-03T09:44:02;69.40;;;6.17;;
4232;SDS011;2130;48.472;11.934;2022-10-03T09:47:14;68.97;;;5.60;;
4232;SDS011;2130;48.472;11.934;2022-10-03T09:53:35;70.73;;;5.33;;
4232;SDS011;2130;48.472;11.934;2022-10-03T09:56:24;78.20;;;5.67;;
4232;SDS011;2130;48.472;11.934;2022-10-03T09:59:11;66.10;;;5.03;;
4232;SDS011;2130;48.472;11.934;2022-10-03T10:01:50;66.47;;;5.20;;
4232;SDS011;2130;48.472;11.934;2022-10-03T10:04:33;70.90;;;5.40;;
4232;SDS011;2130;48.472;11.934;2022-10-03T10:07:34;69.13;;;4.80;;
4232;SDS011;2130;48.472;11.934;2022-10-03T10:10:28;72.53;;;4.57;;
4232;SDS011;2130;48.472;11.934;2022-10-03T10:13:14;66.63;;;5.07;;
4232;SDS011;2130;48.472;11.934;2022-10-03T10:15:53;65.80;;;5.00;;
4232;SDS011;2130;48.472;11.934;2022-10-03T10:18:59;71.80;;;5.20;;
4232;SDS011;2130;48.472;11.934;2022-10-03T10:25:03;68.00;;;4.90;;
4232;SDS011;2130;48.472;11.934;2022-10-03T10:31:31;71.17;;;5.30;;
4232;SDS011;2130;48.472;11.934;2022-10-03T10:34:20;66.37;;;4.30;;
4232;SDS011;2130;48.472;11.934;2022-10-03T10:40:06;67.77;;;4.93;;
4232;SDS011;2130;48.472;11.934;2022-10-03T10:46:02;65.90;;;4.70;;
4232;SDS011;2130;48.472;11.934;2022-10-03T10:49:04;72.20;;;4.77;;
4232;SDS011;2130;48.472;11.934;2022-10-03T11:04:10;69.57;;;4.20;;
4232;SDS011;2130;48.472;11.934;2022-10-03T11:07:01;65.90;;;4.43;;
4232;SDS011;2130;48.472;11.934;2022-10-03T11:09:45;71.43;;;4.40;;
4232;SDS011;2130;48.472;11.934;2022-10-03T11:15:44;66.30;;;4.80;;
4232;SDS011;2130;48.472;11.934;2022-10-03T11:19:10;66.47;;;4.23;;
4232;SDS011;2130;48.472;11.934;2022-10-03T11:22:26;66.33;;;4.07;;
4232;SDS011;2130;48.472;11.934;2022-10-03T11:25:21;66.77;;;4.13;;
4232;SDS011;2130;48.472;11.934;2022-10-03T11:28:24;69.90;;;4.03;;
4232;SDS011;2130;48.472;11.934;2022-10-03T11:35:01;65.87;;;3.60;;
4232;SDS011;2130;48.472;11.934;2022-10-03T11:37:45;80.07;;;3.90;;
4232;SDS011;2130;48.472;11.934;2022-10-03T11:40:20;68.93;;;3.17;;
4232;SDS011;2130;48.472;11.934;2022-10-03T11:43:03;66.20;;;3.10;;
4232;SDS011;2130;48.472;11.934;2022-10-03T11:46:01;66.30;;;3.50;;
4232;SDS011;2130;48.472;11.934;2022-10-03T11:48:44;70.00;;;4.70;;
4232;SDS011;2130;48.472;11.934;2022-10-03T11:51:15;70.43;;;3.87;;
4232;SDS011;2130;48.472;11.934;2022-10-03T11:53:46;68.70;;;4.37;;
4232;SDS011;2130;48.472;11.934;2022-10-03T11:56:26;66.33;;;3.53;;
4232;SDS011;2130;48.472;11.934;2022-10-03T12:02:03;65.97;;;4.07;;
4232;SDS011;2130;48.472;11.934;2022-10-03T12:04:39;67.53;;;3.30;;
4232;SDS011;2130;48.472;11.934;2022-10-03T12:07:16;67.43;;;3.70;;
4232;SDS011;2130;48.472;11.934;2022-10-03T12:10:29;66.57;;;3.60;;
4232;SDS011;2130;48.472;11.934;2022-10-03T12:13:07;67.27;;;4.40;;
4232;SDS011;2130;48.472;11.934;2022-10-03T12:15:41;70.00;;;4.63;;
4232;SDS011;2130;48.472;11.934;2022-10-03T12:18:12;69.33;;;4.10;;
4232;SDS011;2130;48.472;11.934;2022-10-03T12:20:50;69.23;;;3.87;;
4232;SDS011;2130;48.472;11.934;2022-10-03T12:23:37;66.30;;;3.50;;
4232;SDS011;2130;48.472;11.934;2022-10-03T12:26:19;71.73;;;5.07;;
4232;SDS011;2130;48.472;11.934;2022-10-03T12:28:55;71.27;;;3.60;;
4232;SDS011;2130;48.472;11.934;2022-10-03T12:31:25;66.30;;;3.70;;
4232;SDS011;2130;48.472;11.934;2022-10-03T12:33:57;67.10;;;3.87;;
4232;SDS011;2130;48.472;11.934;2022-10-03T12:36:31;69.27;;;4.20;;
4232;SDS011;2130;48.472;11.934;2022-10-03T12:39:14;71.27;;;5.77;;
4232;SDS011;2130;48.472;11.934;2022-10-03T12:41:53;67.40;;;3.90;;
4232;SDS011;2130;48.472;11.934;2022-10-03T12:44:28;68.87;;;3.83;;
4232;SDS011;2130;48.472;11.934;2022-10-03T12:47:11;65.83;;;3.33;;
4232;SDS011;2130;48.472;11.934;2022-10-03T12:50:15;67.20;;;4.30;;
4232;SDS011;2130;48.472;11.934;2022-10-03T12:52:52;68.53;;;3.97;;
4232;SDS011;2130;48.472;11.934;2022-10-03T12:55:31;70.63;;;3.80;;
4232;SDS011;2130;48.472;11.934;2022-10-03T12:58:02;70.77;;;4.50;;
4232;SDS011;2130;48.472;11.934;2022-10-03T13:00:34;69.77;;;4.73;;
4232;SDS011;2130;48.472;11.934;2022-10-03T13:03:14;93.47;;;14.13;;
4232;SDS011;2130;48.472;11.934;2022-10-03T13:05:54;68.23;;;5.43;;
4232;SDS011;2130;48.472;11.934;2022-10-03T13:08:50;73.80;;;7.27;;
4232;SDS011;2130;48.472;11.934;2022-10-03T13:11:29;71.70;;;5.27;;
4232;SDS011;2130;48.472;11.934;2022-10-03T13:14:05;92.30;;;12.50;;
4232;SDS011;2130;48.472;11.934;2022-10-03T13:16:47;68.77;;;4.43;;
4232;SDS011;2130;48.472;11.934;2022-10-03T13:19:22;87.30;;;10.00;;
4232;SDS011;2130;48.472;11.934;2022-10-03T13:21:55;71.67;;;5.27;;
4232;SDS011;2130;48.472;11.934;2022-10-03T13:30:13;73.40;;;7.10;;
4232;SDS011;2130;48.472;11.934;2022-10-03T13:32:45;72.17;;;5.33;;
4232;SDS011;2130;48.472;11.934;2022-10-03T13:35:20;65.23;;;3.40;;
4232;SDS011;2130;48.472;11.934;2022-10-03T13:38:26;70.87;;;4.43;;
4232;SDS011;2130;48.472;11.934;2022-10-03T13:41:22;69.40;;;3.63;;
4232;SDS011;2130;48.472;11.934;2022-10-03T13:43:56;66.87;;;4.17;;
4232;SDS011;2130;48.472;11.934;2022-10-03T13:46:29;73.00;;;5.07;;
4232;SDS011;2130;48.472;11.934;2022-10-03T13:49:00;73.70;;;5.10;;
4232;SDS011;2130;48.472;11.934;2022-10-03T13:51:39;68.37;;;3.60;;
4232;SDS011;2130;48.472;11.934;2022-10-03T13:54:12;70.57;;;4.50;;
4232;SDS011;2130;48.472;11.934;2022-10-03T13:56:48;79.83;;;7.37;;
4232;SDS011;2130;48.472;11.934;2022-10-03T13:59:33;68.43;;;4.87;;
4232;SDS011;2130;48.472;11.934;2022-10-03T14:02:11;78.77;;;8.43;;
4232;SDS011;2130;48.472;11.934;2022-10-03T14:04:52;70.37;;;4.07;;
4232;SDS011;2130;48.472;11.934;2022-10-03T14:07:28;88.97;;;11.40;;
4232;SDS011;2130;48.472;11.934;2022-10-03T14:10:08;68.60;;;4.23;;
4232;SDS011;2130;48.472;11.934;2022-10-03T14:12:49;81.40;;;8.80;;
4232;SDS011;2130;48.472;11.934;2022-10-03T14:15:27;90.23;;;10.67;;
4232;SDS011;2130;48.472;11.934;2022-10-03T14:18:01;73.90;;;5.50;;
4232;SDS011;2130;48.472;11.934;2022-10-03T14:20:37;71.10;;;3.90;;
4232;SDS011;2130;48.472;11.934;2022-10-03T14:23:14;70.57;;;4.10;;
4232;SDS011;2130;48.472;11.934;2022-10-03T14:25:50;70.30;;;5.07;;
4232;SDS011;2130;48.472;11.934;2022-10-03T14:28:23;68.10;;;4.20;;
4232;SDS011;2130;48.472;11.934;2022-10-03T14:30:58;68.60;;;4.73;;
4232;SDS011;2130;48.472;11.934;2022-10-03T14:33:34;67.40;;;4.30;;
4232;SDS011;2130;48.472;11.934;2022-10-03T14:36:10;68.27;;;4.10;;
4232;SDS011;2130;48.472;11.934;2022-10-03T14:38:53;66.40;;;3.50;;
4232;SDS011;2130;48.472;11.934;2022-10-03T14:41:47;68.53;;;4.00;;
4232;SDS011;2130;48.472;11.934;2022-10-03T14:44:18;69.27;;;5.00;;
4232;SDS011;2130;48.472;11.934;2022-10-03T14:46:49;71.00;;;4.43;;
4232;SDS011;2130;48.472;11.934;2022-10-03T14:49:22;69.73;;;3.87;;
4232;SDS011;2130;48.472;11.934;2022-10-03T14:52:41;69.40;;;4.10;;
4232;SDS011;2130;48.472;11.934;2022-10-03T14:55:12;68.60;;;3.50;;
4232;SDS011;2130;48.472;11.934;2022-10-03T14:57:44;68.60;;;4.10;;
4232;SDS011;2130;48.472;11.934;2022-10-03T15:00:36;75.33;;;3.40;;
4232;SDS011;2130;48.472;11.934;2022-10-03T15:03:17;68.57;;;4.47;;
4232;SDS011;2130;48.472;11.934;2022-10-03T15:05:53;67.47;;;3.97;;
4232;SDS011;2130;48.472;11.934;2022-10-03T15:08:25;67.97;;;3.40;;
4232;SDS011;2130;48.472;11.934;2022-10-03T15:10:57;69.20;;;4.20;;
4232;SDS011;2130;48.472;11.934;2022-10-03T15:13:26;67.77;;;3.87;;
4232;SDS011;2130;48.472;11.934;2022-10-03T15:15:54;67.57;;;3.60;;
4232;SDS011;2130;48.472;11.934;2022-10-03T15:18:24;67.83;;;3.27;;
4232;SDS011;2130;48.472;11.934;2022-10-03T15:20:52;67.40;;;3.93;;
4232;SDS011;2130;48.472;11.934;2022-10-03T15:23:21;67.10;;;3.30;;
4232;SDS011;2130;48.472;11.934;2022-10-03T15:25:53;68.27;;;3.47;;
4232;SDS011;2130;48.472;11.934;2022-10-03T15:28:23;69.47;;;3.80;;
4232;SDS011;2130;48.472;11.934;2022-10-03T15:30:53;67.37;;;2.93;;
4232;SDS011;2130;48.472;11.934;2022-10-03T15:33:27;68.90;;;3.40;;
4232;SDS011;2130;48.472;11.934;2022-10-03T15:35:59;66.27;;;3.40;;
4232;SDS011;2130;48.472;11.934;2022-10-03T15:38:32;66.70;;;3.43;;
4232;SDS011;2130;48.472;11.934;2022-10-03T15:41:08;66.80;;;3.10;;
4232;SDS011;2130;48.472;11.934;2022-10-03T15:43:40;69.10;;;3.60;;
4232;SDS011;2130;48.472;11.934;2022-10-03T15:46:13;68.73;;;3.83;;
4232;SDS011;2130;48.472;11.934;2022-10-03T15:48:47;66.07;;;3.37;;
4232;SDS011;2130;48.472;11.934;2022-10-03T15:51:18;67.10;;;3.40;;
4232;SDS011;2130;48.472;11.934;2022-10-03T15:53:52;67.27;;;3.33;;
4232;SDS011;2130;48.472;11.934;2022-10-03T15:56:24;68.60;;;3.77;;
4232;SDS011;2130;48.472;11.934;2022-10-03T15:58:56;68.13;;;3.70;;
4232;SDS011;2130;48.472;11.934;2022-10-03T16:01:27;71.87;;;3.83;;
4232;SDS011;2130;48.472;11.934;2022-10-03T16:03:58;69.87;;;3.80;;
4232;SDS011;2130;48.472;11.934;2022-10-03T16:06:29;68.10;;;3.47;;
4232;SDS011;2130;48.472;11.934;2022-10-03T16:09:03;67.27;;;3.80;;
4232;SDS011;2130;48.472;11.934;2022-10-03T16:11:36;69.27;;;4.10;;
4232;SDS011;2130;48.472;11.934;2022-10-03T16:14:13;68.33;;;3.70;;
4232;SDS011;2130;48.472;11.934;2022-10-03T16:16:45;65.10;;;3.50;;
4232;SDS011;2130;48.472;11.934;2022-10-03T16:19:20;68.50;;;3.50;;
4232;SDS011;2130;48.472;11.934;2022-10-03T16:21:53;70.37;;;4.47;;
4232;SDS011;2130;48.472;11.934;2022-10-03T16:24:26;67.10;;;3.70;;
4232;SDS011;2130;48.472;11.934;2022-10-03T16:27:00;65.87;;;3.73;;
4232;SDS011;2130;48.472;11.934;2022-10-03T16:29:34;65.00;;;3.70;;
4232;SDS011;2130;48.472;11.934;2022-10-03T16:32:04;64.97;;;3.50;;
4232;SDS011;2130;48.472;11.934;2022-10-03T16:34:35;66.43;;;3.63;;
4232;SDS011;2130;48.472;11.934;2022-10-03T16:37:14;67.57;;;4.20;;
4232;SDS011;2130;48.472;11.934;2022-10-03T16:39:45;66.70;;;3.13;;
4232;SDS011;2130;48.472;11.934;2022-10-03T16:42:19;65.07;;;3.23;;
4232;SDS011;2130;48.472;11.934;2022-10-03T16:44:51;67.10;;;3.63;;
4232;SDS011;2130;48.472;11.934;2022-10-03T16:47:27;66.67;;;4.03;;
4232;SDS011;2130;48.472;11.934;2022-10-03T16:49:59;65.10;;;3.57;;
4232;SDS011;2130;48.472;11.934;2022-10-03T16:52:46;65.70;;;3.53;;
4232;SDS011;2130;48.472;11.934;2022-10-03T16:55:16;65.40;;;3.70;;
4232;SDS011;2130;48.472;11.934;2022-10-03T17:01:07;66.83;;;3.70;;
4232;SDS011;2130;48.472;11.934;2022-10-03T17:03:57;67.60;;;3.97;;
4232;SDS011;2130;48.472;11.934;2022-10-03T17:06:39;69.63;;;4.60;;
4232;SDS011;2130;48.472;11.934;2022-10-03T17:09:13;70.50;;;5.60;;
4232;SDS011;2130;48.472;11.934;2022-10-03T17:11:46;68.77;;;5.90;;
4232;SDS011;2130;48.472;11.934;2022-10-03T17:14:18;70.77;;;5.70;;
4232;SDS011;2130;48.472;11.934;2022-10-03T17:16:48;67.93;;;4.70;;
4232;SDS011;2130;48.472;11.934;2022-10-03T17:19:20;66.87;;;4.87;;
4232;SDS011;2130;48.472;11.934;2022-10-03T17:21:56;64.63;;;4.13;;
4232;SDS011;2130;48.472;11.934;2022-10-03T17:24:31;66.13;;;4.37;;
4232;SDS011;2130;48.472;11.934;2022-10-03T17:27:05;66.00;;;3.83;;
4232;SDS011;2130;48.472;11.934;2022-10-03T17:29:43;64.97;;;4.13;;
4232;SDS011;2130;48.472;11.934;2022-10-03T17:32:17;67.77;;;4.17;;
4232;SDS011;2130;48.472;11.934;2022-10-03T17:34:49;65.80;;;3.70;;
4232;SDS011;2130;48.472;11.934;2022-10-03T17:40:50;69.13;;;6.33;;
4232;SDS011;2130;48.472;11.934;2022-10-03T17:43:28;72.10;;;6.57;;
4232;SDS011;2130;48.472;11.934;2022-10-03T17:46:02;73.57;;;6.23;;
4232;SDS011;2130;48.472;11.934;2022-10-03T17:48:34;69.70;;;6.20;;
4232;SDS011;2130;48.472;11.934;2022-10-03T17:51:17;68.57;;;5.50;;
4232;SDS011;2130;48.472;11.934;2022-10-03T17:53:54;69.17;;;6.07;;
4232;SDS011;2130;48.472;11.934;2022-10-03T17:56:24;69.07;;;6.50;;
4232;SDS011;2130;48.472;11.934;2022-10-03T17:58:57;69.77;;;6.67;;
4232;SDS011;2130;48.472;11.934;2022-10-03T18:01:30;76.95;;;7.18;;
4232;SDS011;2130;48.472;11.934;2022-10-03T18:04:02;74.40;;;6.03;;
4232;SDS011;2130;48.472;11.934;2022-10-03T18:06:35;67.17;;;5.20;;
4232;SDS011;2130;48.472;11.934;2022-10-03T18:09:07;66.33;;;5.30;;
4232;SDS011;2130;48.472;11.934;2022-10-03T18:11:37;67.07;;;5.20;;
4232;SDS011;2130;48.472;11.934;2022-10-03T18:14:10;65.37;;;5.20;;
4232;SDS011;2130;48.472;11.934;2022-10-03T18:16:42;68.13;;;5.83;;
4232;SDS011;2130;48.472;11.934;2022-10-03T18:22:04;70.70;;;6.37;;
4232;SDS011;2130;48.472;11.934;2022-10-03T18:24:53;67.73;;;6.10;;
4232;SDS011;2130;48.472;11.934;2022-10-03T18:27:28;70.13;;;6.63;;
4232;SDS011;2130;48.472;11.934;2022-10-03T18:30:18;73.83;;;7.33;;
4232;SDS011;2130;48.472;11.934;2022-10-03T18:32:48;69.37;;;7.90;;
4232;SDS011;2130;48.472;11.934;2022-10-03T18:35:19;68.77;;;7.30;;